createdAt,value
2018-11-28T00:00:05.967Z,-1.60
2018-11-28T00:02:34.407Z,-1.60
2018-11-28T00:05:02.769Z,-1.60
2018-11-28T00:07:31.163Z,-1.60
2018-11-28T00:09:59.502Z,-1.60
2018-11-28T00:12:28.112Z,-1.60
2018-11-28T00:14:56.536Z,-1.60
2018-11-28T00:17:24.948Z,-1.70
2018-11-28T00:19:53.296Z,-1.70
2018-11-28T00:22:21.807Z,-1.70
2018-11-28T00:24:50.209Z,-1.70
2018-11-28T00:27:18.784Z,-1.70
2018-11-28T00:29:47.168Z,-1.70
2018-11-28T00:32:15.775Z,-1.80
2018-11-28T00:34:44.091Z,-1.80
2018-11-28T00:37:13.295Z,-1.80
2018-11-28T00:39:42.432Z,-1.90
2018-11-28T00:42:10.806Z,-1.90
2018-11-28T00:44:39.176Z,-1.90
2018-11-28T00:47:07.588Z,-1.90
2018-11-28T00:49:35.968Z,-1.90
2018-11-28T00:52:04.360Z,-1.90
2018-11-28T00:54:32.744Z,-1.90
2018-11-28T00:57:01.178Z,-1.90
2018-11-28T00:59:29.528Z,-1.90
2018-11-28T01:01:58.698Z,-1.90
2018-11-28T01:04:27.145Z,-1.90
2018-11-28T01:06:55.519Z,-1.90
2018-11-28T01:09:24.040Z,-1.80
2018-11-28T01:11:52.444Z,-1.90
2018-11-28T01:14:20.923Z,-1.80
2018-11-28T01:16:49.306Z,-1.80
2018-11-28T01:19:17.660Z,-1.80
2018-11-28T01:21:46.068Z,-1.80
2018-11-28T01:24:14.450Z,-1.80
2018-11-28T01:26:42.818Z,-1.80
2018-11-28T01:29:11.273Z,-1.80
2018-11-28T01:31:39.722Z,-1.80
2018-11-28T01:34:08.136Z,-1.80
2018-11-28T01:36:36.541Z,-1.80
2018-11-28T01:39:04.981Z,-1.80
2018-11-28T01:41:33.341Z,-1.70
2018-11-28T01:44:01.716Z,-1.70
2018-11-28T01:46:30.099Z,-1.70
2018-11-28T01:48:58.497Z,-1.80
2018-11-28T01:51:26.921Z,-1.80
2018-11-28T01:53:55.333Z,-1.80
2018-11-28T01:56:23.704Z,-1.80
2018-11-28T01:58:52.076Z,-1.80
2018-11-28T02:01:20.514Z,-1.90
2018-11-28T02:03:48.876Z,-1.90
2018-11-28T02:06:17.283Z,-1.90
2018-11-28T02:08:45.742Z,-1.90
2018-11-28T02:11:14.214Z,-1.90
2018-11-28T02:13:42.576Z,-1.90
2018-11-28T02:16:11.008Z,-1.90
2018-11-28T02:18:39.381Z,-1.80
2018-11-28T02:21:07.762Z,-1.80
2018-11-28T02:23:36.142Z,-1.90
2018-11-28T02:26:04.494Z,-1.90
2018-11-28T02:28:32.947Z,-1.90
2018-11-28T02:31:02.086Z,-1.90
2018-11-28T02:33:30.482Z,-1.80
2018-11-28T02:35:58.870Z,-1.80
2018-11-28T02:38:27.414Z,-1.80
2018-11-28T02:40:56.582Z,-1.90
2018-11-28T02:43:24.995Z,-1.90
2018-11-28T02:45:53.334Z,-1.90
2018-11-28T02:48:22.528Z,-1.90
2018-11-28T02:50:51.676Z,-1.90
2018-11-28T02:53:20.046Z,-1.90
2018-11-28T02:55:48.459Z,-1.80
2018-11-28T02:58:16.915Z,-1.90
2018-11-28T03:00:45.293Z,-1.90
2018-11-28T03:03:13.689Z,-1.90
2018-11-28T03:05:42.087Z,-1.90
2018-11-28T03:08:10.545Z,-2.00
2018-11-28T03:10:38.897Z,-1.90
2018-11-28T03:13:07.302Z,-2.00
2018-11-28T03:15:35.668Z,-2.00
2018-11-28T03:18:04.062Z,-1.90
2018-11-28T03:20:32.443Z,-1.90
2018-11-28T03:23:00.860Z,-1.90
2018-11-28T03:25:30.028Z,-2.00
2018-11-28T03:27:58.401Z,-2.00
2018-11-28T03:30:26.811Z,-2.00
2018-11-28T03:32:55.211Z,-2.00
2018-11-28T03:35:24.342Z,-2.00
2018-11-28T03:37:52.763Z,-2.00
2018-11-28T03:40:21.105Z,-1.90
2018-11-28T03:42:49.472Z,-1.90
2018-11-28T03:45:17.864Z,-2.00
2018-11-28T03:47:46.229Z,-1.90
2018-11-28T03:50:14.649Z,-2.00
2018-11-28T03:52:43.029Z,-2.00
2018-11-28T03:55:11.405Z,-2.00
2018-11-28T03:57:39.799Z,-2.00
2018-11-28T04:00:08.166Z,-2.00
2018-11-28T04:02:36.517Z,-2.00
2018-11-28T04:05:04.891Z,-2.00
2018-11-28T04:07:33.264Z,-2.10
2018-11-28T04:10:01.663Z,-2.00
2018-11-28T04:12:30.055Z,-2.00
2018-11-28T04:14:58.439Z,-2.00
2018-11-28T04:17:26.801Z,-2.00
2018-11-28T04:19:55.189Z,-2.00
2018-11-28T04:22:23.543Z,-1.90
2018-11-28T04:24:51.946Z,-1.90
2018-11-28T04:27:20.397Z,-2.00
2018-11-28T04:29:48.845Z,-1.90
2018-11-28T04:32:17.223Z,-2.00
2018-11-28T04:34:46.342Z,-1.90
2018-11-28T04:37:14.737Z,-2.00
2018-11-28T04:39:43.136Z,-1.90
2018-11-28T04:42:11.527Z,-1.90
2018-11-28T04:44:39.905Z,-1.90
2018-11-28T04:47:08.279Z,-1.80
2018-11-28T04:49:36.655Z,-1.90
2018-11-28T04:52:05.013Z,-1.90
2018-11-28T04:54:33.381Z,-1.90
2018-11-28T04:57:01.777Z,-1.90
2018-11-28T04:59:30.127Z,-1.90
2018-11-28T05:01:58.499Z,-1.80
2018-11-28T05:04:26.916Z,-1.80
2018-11-28T05:07:13.494Z,-1.80
2018-11-28T05:09:42.600Z,-1.80
2018-11-28T05:12:10.985Z,-1.80
2018-11-28T05:14:39.378Z,-1.80
2018-11-28T05:17:07.756Z,-1.80
2018-11-28T05:19:36.148Z,-1.80
2018-11-28T05:22:04.489Z,-1.80
2018-11-28T05:24:32.845Z,-1.80
2018-11-28T05:27:01.992Z,-1.90
2018-11-28T05:29:30.347Z,-1.90
2018-11-28T05:31:58.717Z,-1.90
2018-11-28T05:34:27.131Z,-1.90
2018-11-28T05:36:55.613Z,-1.90
2018-11-28T05:39:23.997Z,-1.80
2018-11-28T05:41:57.396Z,-1.90
2018-11-28T05:44:25.775Z,-1.90
2018-11-28T05:46:54.129Z,-1.90
2018-11-28T05:49:22.537Z,-1.90
2018-11-28T05:51:50.913Z,-1.90
2018-11-28T05:54:20.293Z,-1.90
2018-11-28T05:56:47.769Z,-1.90
2018-11-28T05:59:16.160Z,-2.00
2018-11-28T06:01:44.503Z,-2.00
2018-11-28T06:04:13.037Z,-2.00
2018-11-28T06:06:41.401Z,-2.00
2018-11-28T06:09:09.877Z,-2.00
2018-11-28T06:11:38.241Z,-2.00
2018-11-28T06:16:55.345Z,-2.10
2018-11-28T06:19:23.691Z,-2.10
2018-11-28T06:21:52.074Z,-2.10
2018-11-28T06:24:20.475Z,-2.10
2018-11-28T06:26:48.826Z,-2.10
2018-11-28T06:29:17.245Z,-2.10
2018-11-28T06:31:45.646Z,-2.10
2018-11-28T06:34:14.005Z,-2.10
2018-11-28T06:36:42.775Z,-2.20
2018-11-28T06:39:11.231Z,-2.20
2018-11-28T06:41:39.797Z,-2.20
2018-11-28T06:44:08.269Z,-2.20
2018-11-28T06:46:36.809Z,-2.20
2018-11-28T06:49:05.259Z,-2.20
2018-11-28T06:51:33.605Z,-2.20
2018-11-28T06:54:02.021Z,-2.20
2018-11-28T06:56:30.385Z,-2.10
2018-11-28T06:58:58.769Z,-2.10
2018-11-28T07:01:27.189Z,-2.10
2018-11-28T07:03:55.565Z,-2.10
2018-11-28T07:06:23.913Z,-2.10
2018-11-28T07:08:52.302Z,-2.00
2018-11-28T07:11:20.788Z,-2.10
2018-11-28T07:13:49.153Z,-2.00
2018-11-28T07:16:17.605Z,-2.00
2018-11-28T07:19:04.791Z,-2.00
2018-11-28T07:21:33.245Z,-2.00
2018-11-28T07:24:01.583Z,-2.00
2018-11-28T07:26:30.101Z,-1.70
2018-11-28T07:28:58.482Z,-1.30
2018-11-28T07:31:27.096Z,-1.30
2018-11-28T07:33:55.481Z,-1.30
2018-11-28T07:36:25.151Z,-1.40
2018-11-28T07:38:54.211Z,-1.40
2018-11-28T07:41:21.945Z,-1.40
2018-11-28T07:43:51.077Z,-1.50
2018-11-28T07:46:19.436Z,-1.50
2018-11-28T07:48:47.806Z,-1.50
2018-11-28T07:51:16.169Z,-1.50
2018-11-28T07:53:44.527Z,-1.40
2018-11-28T07:56:12.954Z,-1.40
2018-11-28T07:58:42.093Z,-1.30
2018-11-28T08:01:10.473Z,-1.40
2018-11-28T08:03:38.850Z,-1.30
2018-11-28T08:06:07.218Z,-1.30
2018-11-28T08:08:35.613Z,-1.20
2018-11-28T08:11:03.989Z,-1.10
2018-11-28T08:13:32.375Z,-0.90
2018-11-28T08:16:00.730Z,-0.80
2018-11-28T08:18:29.117Z,-0.60
2018-11-28T08:20:57.507Z,-0.40
2018-11-28T08:23:25.875Z,-0.30
2018-11-28T08:25:54.263Z,-0.10
2018-11-28T08:28:22.641Z,0.00
2018-11-28T08:30:50.997Z,0.10
2018-11-28T08:33:19.348Z,0.10
2018-11-28T08:35:47.837Z,0.00
2018-11-28T08:38:16.107Z,0.00
2018-11-28T08:40:44.477Z,0.00
2018-11-28T08:43:12.948Z,-0.10
2018-11-28T08:45:41.342Z,0.00
2018-11-28T08:48:09.723Z,-0.10
2018-11-28T08:50:38.111Z,0.00
2018-11-28T08:53:07.254Z,0.00
2018-11-28T08:55:35.624Z,0.00
2018-11-28T08:58:03.974Z,0.00
2018-11-28T09:00:33.169Z,0.10
2018-11-28T09:03:01.514Z,0.00
2018-11-28T09:05:29.863Z,0.10
2018-11-28T09:07:58.242Z,0.10
2018-11-28T09:10:26.614Z,0.10
2018-11-28T09:12:55.063Z,0.20
2018-11-28T09:15:23.373Z,0.30
2018-11-28T09:17:51.765Z,0.40
2018-11-28T09:20:20.910Z,0.50
2018-11-28T09:22:49.321Z,0.40
2018-11-28T09:25:18.471Z,0.60
2018-11-28T09:27:46.913Z,0.60
2018-11-28T09:30:15.270Z,0.60
2018-11-28T09:32:44.394Z,0.80
2018-11-28T09:35:12.800Z,0.70
2018-11-28T09:37:45.540Z,0.80
2018-11-28T09:40:09.498Z,0.90
2018-11-28T09:42:38.628Z,0.90
2018-11-28T09:45:07.095Z,0.90
2018-11-28T09:47:35.468Z,0.90
2018-11-28T09:50:03.873Z,0.90
2018-11-28T09:52:32.268Z,0.90
2018-11-28T09:55:00.615Z,1.00
2018-11-28T09:57:28.996Z,1.00
2018-11-28T09:59:57.350Z,1.00
2018-11-28T10:02:25.717Z,1.10
2018-11-28T10:04:54.188Z,1.20
2018-11-28T10:07:22.578Z,1.10
2018-11-28T10:09:51.028Z,1.10
2018-11-28T10:12:19.815Z,1.20
2018-11-28T10:14:47.829Z,1.20
2018-11-28T10:17:16.944Z,1.30
2018-11-28T10:19:46.041Z,1.30
2018-11-28T10:22:14.399Z,1.30
2018-11-28T10:24:43.527Z,1.40
2018-11-28T10:27:11.943Z,1.40
2018-11-28T10:29:40.299Z,1.50
2018-11-28T10:32:09.417Z,1.50
2018-11-28T10:34:37.773Z,1.50
2018-11-28T10:37:06.133Z,1.60
2018-11-28T10:39:34.485Z,1.70
2018-11-28T10:42:02.887Z,1.80
2018-11-28T10:44:31.231Z,1.90
2018-11-28T10:46:59.580Z,2.00
2018-11-28T10:49:27.923Z,2.10
2018-11-28T10:51:56.275Z,2.20
2018-11-28T10:54:24.646Z,2.20
2018-11-28T10:56:53.098Z,2.30
2018-11-28T10:59:21.435Z,2.30
2018-11-28T11:01:49.855Z,2.30
2018-11-28T11:04:18.198Z,2.50
2018-11-28T11:06:46.531Z,2.60
2018-11-28T11:09:14.886Z,2.70
2018-11-28T11:11:43.254Z,2.80
2018-11-28T11:14:11.669Z,2.90
2018-11-28T11:16:40.046Z,3.10
2018-11-28T11:19:08.476Z,3.30
2018-11-28T11:21:37.601Z,3.90
2018-11-28T11:24:05.943Z,3.90
2018-11-28T11:26:35.071Z,4.70
2018-11-28T11:29:03.479Z,4.70
2018-11-28T11:31:31.911Z,5.20
2018-11-28T11:34:00.354Z,5.60
2018-11-28T11:36:28.705Z,5.80
2018-11-28T11:38:57.067Z,5.80
2018-11-28T11:41:25.438Z,5.70
2018-11-28T11:43:53.801Z,5.60
2018-11-28T11:46:22.149Z,5.60
2018-11-28T11:48:50.570Z,5.60
2018-11-28T11:51:19.726Z,5.00
2018-11-28T11:53:48.072Z,4.90
2018-11-28T11:56:16.444Z,4.70
2018-11-28T11:58:44.789Z,4.60
2018-11-28T12:01:13.158Z,4.60
2018-11-28T12:03:42.270Z,4.60
2018-11-28T12:06:10.634Z,4.60
2018-11-28T12:08:39.806Z,4.40
2018-11-28T12:11:08.295Z,4.40
2018-11-28T12:13:36.745Z,4.20
2018-11-28T12:16:05.121Z,4.10
2018-11-28T12:18:33.530Z,4.00
2018-11-28T12:21:01.877Z,4.10
2018-11-28T12:23:30.272Z,4.20
2018-11-28T12:25:58.670Z,4.30
2018-11-28T12:28:27.038Z,4.50
2018-11-28T12:30:55.395Z,4.50
2018-11-28T12:33:23.803Z,4.60
2018-11-28T12:35:52.849Z,4.50
2018-11-28T12:38:21.204Z,4.50
2018-11-28T12:40:49.563Z,4.60
2018-11-28T12:43:18.005Z,4.90
2018-11-28T12:45:46.337Z,5.00
2018-11-28T12:48:16.399Z,5.70
2018-11-28T12:50:44.760Z,5.70
2018-11-28T12:53:13.147Z,6.10
2018-11-28T12:55:41.559Z,6.40
2018-11-28T12:58:10.625Z,6.90
2018-11-28T13:00:38.976Z,6.90
2018-11-28T13:03:08.096Z,6.90
2018-11-28T13:05:36.440Z,6.90
2018-11-28T13:08:04.818Z,6.80
2018-11-28T13:10:33.181Z,6.80
2018-11-28T13:13:01.560Z,6.70
2018-11-28T13:15:30.023Z,6.60
2018-11-28T13:17:58.485Z,6.40
2018-11-28T13:20:26.852Z,6.10
2018-11-28T13:22:55.561Z,5.90
2018-11-28T13:25:24.004Z,5.70
2018-11-28T13:27:52.423Z,5.60
2018-11-28T13:30:20.799Z,5.60
2018-11-28T13:32:49.157Z,5.60
2018-11-28T13:35:17.543Z,5.50
2018-11-28T13:37:45.882Z,5.40
2018-11-28T13:40:14.265Z,5.30
2018-11-28T13:42:42.687Z,5.20
2018-11-28T13:45:11.033Z,5.20
2018-11-28T13:47:39.424Z,5.20
2018-11-28T13:50:08.561Z,5.00
2018-11-28T13:52:37.044Z,4.90
2018-11-28T13:57:34.329Z,4.60
2018-11-28T14:00:02.807Z,4.50
2018-11-28T14:02:32.263Z,4.30
2018-11-28T14:04:59.555Z,4.20
2018-11-28T14:07:28.028Z,4.10
2018-11-28T14:09:56.387Z,3.90
2018-11-28T14:12:24.797Z,3.90
2018-11-28T14:14:53.145Z,3.70
2018-11-28T14:17:21.587Z,3.60
2018-11-28T14:19:49.927Z,3.50
2018-11-28T14:22:18.303Z,3.30
2018-11-28T14:24:46.633Z,3.20
2018-11-28T14:27:15.173Z,3.10
2018-11-28T14:29:43.485Z,3.00
2018-11-28T14:32:11.880Z,2.90
2018-11-28T14:34:40.233Z,2.90
2018-11-28T14:37:08.711Z,2.80
2018-11-28T14:39:37.218Z,2.70
2018-11-28T14:42:05.542Z,2.70
2018-11-28T14:44:33.967Z,2.60
2018-11-28T14:47:02.512Z,2.50
2018-11-28T14:49:30.777Z,2.50
2018-11-28T14:51:59.136Z,2.40
2018-11-28T14:54:28.255Z,2.30
2018-11-28T14:56:56.634Z,2.30
2018-11-28T14:59:25.048Z,2.20
2018-11-28T15:01:53.413Z,2.20
2018-11-28T15:04:21.781Z,2.20
2018-11-28T15:06:50.146Z,2.10
2018-11-28T15:09:18.559Z,2.10
2018-11-28T15:11:46.922Z,2.00
2018-11-28T15:14:15.311Z,2.00
2018-11-28T15:16:43.714Z,2.00
2018-11-28T15:19:12.059Z,1.90
2018-11-28T15:21:40.432Z,1.90
2018-11-28T15:24:08.777Z,1.80
2018-11-28T15:26:37.319Z,1.80
2018-11-28T15:29:05.680Z,1.80
2018-11-28T15:31:34.013Z,1.80
2018-11-28T15:34:02.453Z,1.80
2018-11-28T15:36:30.813Z,1.80
2018-11-28T15:38:59.220Z,1.70
2018-11-28T15:41:27.589Z,1.80
2018-11-28T15:43:55.953Z,1.70
2018-11-28T15:46:24.318Z,1.70
2018-11-28T15:48:52.683Z,1.70
2018-11-28T15:51:21.816Z,1.70
2018-11-28T15:53:50.177Z,1.70
2018-11-28T15:56:18.538Z,1.70
2018-11-28T15:58:47.078Z,1.60
2018-11-28T16:01:15.440Z,1.60
2018-11-28T16:03:43.813Z,1.60
2018-11-28T16:06:12.174Z,1.60
2018-11-28T16:08:40.522Z,1.60
2018-11-28T16:11:08.901Z,1.60
2018-11-28T16:13:38.031Z,1.60
2018-11-28T16:16:06.441Z,1.60
2018-11-28T16:18:34.773Z,1.60
2018-11-28T16:21:03.149Z,1.60
2018-11-28T16:23:32.302Z,1.60
2018-11-28T16:26:00.675Z,1.60
2018-11-28T16:28:29.020Z,1.60
2018-11-28T16:30:57.419Z,1.70
2018-11-28T16:33:25.781Z,2.00
2018-11-28T16:35:54.182Z,2.30
2018-11-28T16:38:22.522Z,2.40
2018-11-28T16:40:50.943Z,2.50
2018-11-28T16:43:19.281Z,2.40
2018-11-28T16:45:47.645Z,2.30
2018-11-28T16:48:16.851Z,2.20
2018-11-28T16:50:45.374Z,2.20
2018-11-28T16:53:13.801Z,2.10
2018-11-28T16:55:42.226Z,2.10
2018-11-28T16:58:10.585Z,2.10
2018-11-28T17:00:38.963Z,2.10
2018-11-28T17:03:07.608Z,2.00
2018-11-28T17:05:35.987Z,2.00
2018-11-28T17:08:04.351Z,2.00
2018-11-28T17:10:32.851Z,1.90
2018-11-28T17:13:01.252Z,1.90
2018-11-28T17:15:29.636Z,1.90
2018-11-28T17:17:58.038Z,1.90
2018-11-28T17:20:26.413Z,1.90
2018-11-28T17:22:54.782Z,1.90
2018-11-28T17:25:23.157Z,1.90
2018-11-28T17:27:52.333Z,1.90
2018-11-28T17:30:20.733Z,1.90
2018-11-28T17:32:49.834Z,1.90
2018-11-28T17:35:18.237Z,1.90
2018-11-28T17:37:46.599Z,2.00
2018-11-28T17:40:15.800Z,2.00
2018-11-28T17:42:44.962Z,1.90
2018-11-28T17:45:13.343Z,1.90
2018-11-28T17:47:41.745Z,1.90
2018-11-28T17:50:10.192Z,2.00
2018-11-28T17:52:38.761Z,2.00
2018-11-28T17:55:07.162Z,1.90
2018-11-28T17:57:35.524Z,1.90
2018-11-28T18:00:03.876Z,1.90
2018-11-28T18:02:32.410Z,1.90
2018-11-28T18:05:00.919Z,2.00
2018-11-28T18:07:29.479Z,2.00
2018-11-28T18:09:58.100Z,2.00
2018-11-28T18:13:56.325Z,2.00
2018-11-28T18:16:29.480Z,2.00
2018-11-28T18:18:53.433Z,2.00
2018-11-28T18:21:21.893Z,1.90
2018-11-28T18:23:50.981Z,1.90
2018-11-28T18:26:19.412Z,1.90
2018-11-28T18:28:47.789Z,1.90
2018-11-28T18:31:16.252Z,1.90
2018-11-28T18:33:45.372Z,2.00
2018-11-28T18:36:13.765Z,1.90
2018-11-28T18:38:42.148Z,1.90
2018-11-28T18:41:10.525Z,1.90
2018-11-28T18:43:38.852Z,1.90
2018-11-28T18:46:08.022Z,1.90
2018-11-28T18:48:36.362Z,1.90
2018-11-28T18:51:04.739Z,1.90
2018-11-28T18:53:33.133Z,1.90
2018-11-28T18:56:01.491Z,1.80
2018-11-28T18:58:30.597Z,1.80
2018-11-28T19:00:58.952Z,1.80
2018-11-28T19:03:28.068Z,1.80
2018-11-28T19:05:57.204Z,1.80
2018-11-28T19:08:25.550Z,1.80
2018-11-28T19:10:53.937Z,1.80
2018-11-28T19:13:22.298Z,1.80
2018-11-28T19:15:50.715Z,1.80
2018-11-28T19:18:19.090Z,1.80
2018-11-28T19:20:47.443Z,1.80
2018-11-28T19:23:15.796Z,1.80
2018-11-28T19:25:49.772Z,1.80
2018-11-28T19:28:12.556Z,1.80
2018-11-28T19:30:41.688Z,1.90
2018-11-28T19:33:10.021Z,1.80
2018-11-28T19:35:39.157Z,1.90
2018-11-28T19:38:07.535Z,1.90
2018-11-28T19:40:35.916Z,1.90
2018-11-28T19:43:04.530Z,1.90
2018-11-28T19:45:32.726Z,1.90
2018-11-28T19:48:01.185Z,1.90
2018-11-28T19:50:29.628Z,1.90
2018-11-28T19:52:58.811Z,1.90
2018-11-28T19:55:27.184Z,1.90
2018-11-28T19:57:55.577Z,1.90
2018-11-28T20:00:24.128Z,1.90
2018-11-28T20:02:52.506Z,2.00
2018-11-28T20:05:21.094Z,2.10
2018-11-28T20:07:49.786Z,2.30
2018-11-28T20:10:18.138Z,2.40
2018-11-28T20:12:46.531Z,2.50
2018-11-28T20:15:14.916Z,2.60
2018-11-28T20:17:44.084Z,2.70
2018-11-28T20:20:12.450Z,2.70
2018-11-28T20:22:40.895Z,2.70
2018-11-28T20:25:09.251Z,2.90
2018-11-28T20:27:37.699Z,2.90
2018-11-28T20:30:06.080Z,3.10
2018-11-28T20:32:34.442Z,3.20
2018-11-28T20:35:03.189Z,3.30
2018-11-28T20:37:31.564Z,3.30
2018-11-28T20:39:59.947Z,3.40
2018-11-28T20:42:28.306Z,3.40
2018-11-28T20:44:56.842Z,3.40
2018-11-28T20:47:25.212Z,3.50
2018-11-28T20:49:54.350Z,3.60
2018-11-28T20:52:22.700Z,3.50
2018-11-28T20:54:51.139Z,3.60
2018-11-28T20:57:19.499Z,3.60
2018-11-28T20:59:47.838Z,3.60
2018-11-28T21:02:16.213Z,3.60
2018-11-28T21:04:45.344Z,3.70
2018-11-28T21:07:13.704Z,3.60
2018-11-28T21:09:42.094Z,3.70
2018-11-28T21:12:10.464Z,3.70
2018-11-28T21:14:38.802Z,3.70
2018-11-28T21:17:07.948Z,3.60
2018-11-28T21:19:36.332Z,3.60
2018-11-28T21:22:04.771Z,3.70
2018-11-28T21:24:33.904Z,4.20
2018-11-28T21:27:02.237Z,4.20
2018-11-28T21:29:31.393Z,5.20
2018-11-28T21:31:59.751Z,5.20
2018-11-28T21:34:28.186Z,5.70
2018-11-28T21:36:56.534Z,5.70
2018-11-28T21:39:25.204Z,5.40
2018-11-28T21:41:53.740Z,5.30
2018-11-28T21:44:23.036Z,5.10
2018-11-28T21:46:50.966Z,4.90
2018-11-28T21:49:19.512Z,4.80
2018-11-28T21:51:47.884Z,4.60
2018-11-28T21:54:17.073Z,4.40
2018-11-28T21:56:45.476Z,4.40
2018-11-28T21:59:13.838Z,4.30
2018-11-28T22:01:42.389Z,4.20
2018-11-28T22:04:10.834Z,4.20
2018-11-28T22:06:39.979Z,4.10
2018-11-28T22:09:09.223Z,4.10
2018-11-28T22:11:37.631Z,4.10
2018-11-28T22:14:05.993Z,4.00
2018-11-28T22:16:34.503Z,4.00
2018-11-28T22:19:02.907Z,4.00
2018-11-28T22:21:31.276Z,3.90
2018-11-28T22:23:59.602Z,4.00
2018-11-28T22:26:27.990Z,4.00
2018-11-28T22:28:56.334Z,3.90
2018-11-28T22:31:25.474Z,3.90
2018-11-28T22:33:53.893Z,3.90
2018-11-28T22:36:22.252Z,3.90
2018-11-28T22:38:50.583Z,3.90
2018-11-28T22:41:18.974Z,3.90
2018-11-28T22:43:47.654Z,4.00
2018-11-28T22:46:16.906Z,3.90
2018-11-28T22:48:45.300Z,3.90
2018-11-28T22:51:13.762Z,3.90
2018-11-28T22:53:42.118Z,3.90
2018-11-28T22:56:10.470Z,3.90
2018-11-28T22:58:39.698Z,3.90
2018-11-28T23:01:08.044Z,3.90
2018-11-28T23:03:36.384Z,3.90
2018-11-28T23:06:04.758Z,3.90
2018-11-28T23:08:33.227Z,3.80
2018-11-28T23:11:01.558Z,3.80
2018-11-28T23:13:30.890Z,3.80
2018-11-28T23:15:59.734Z,3.70
2018-11-28T23:18:28.166Z,3.80
2018-11-28T23:20:56.492Z,3.80
2018-11-28T23:23:24.922Z,3.70
2018-11-28T23:25:53.313Z,3.70
2018-11-28T23:28:21.627Z,3.70
2018-11-28T23:30:50.750Z,3.70
2018-11-28T23:33:20.080Z,3.70
2018-11-28T23:35:48.422Z,3.70
2018-11-28T23:38:17.568Z,3.70
2018-11-28T23:40:45.929Z,3.70
2018-11-28T23:43:14.418Z,3.70
2018-11-28T23:45:42.823Z,3.70
2018-11-28T23:48:11.210Z,3.70
2018-11-28T23:50:39.578Z,3.70
2018-11-28T23:53:07.942Z,3.80
2018-11-28T23:55:36.300Z,3.80
2018-11-28T23:58:04.638Z,3.70
